AirNav   Air Wisconsin Up To $57,000 Bonus
 
 821 users online  

NC02 Boomerang Airport
Harris, North Carolina, USA

GOING TO HARRIS?


FAA INFORMATION EFFECTIVE 03 NOVEMBER 2022

Location

FAA Identifier: NC02
Lat/Long: 35-12-45.4340N 081-51-59.3740W
35-12.757233N 081-51.989567W
35.2126206,-81.8664928
(estimated)
Elevation: 850 ft. / 259 m (estimated)
Variation: 04W (1985)
From city: 2 miles S of HARRIS, NC
Time zone: UTC -5 (UTC -4 during Daylight Saving Time)
Zip code: 28139

Airport Operations

Airport use: Private use. Permission required prior to landing
Activation date: 08/1970
Control tower: no
ARTCC: ATLANTA CENTER
FSS: RALEIGH FLIGHT SERVICE STATION
Attendance: UNATNDD
Wind indicator: no
Segmented circle: no

Airport Communications

WX AWOS-3 at EHO (13 nm E): 118.425 (704-487-0100)
WX AWOS-3 at FQD (13 nm N): 118.275 (828-287-6498)
WX AWOS-3 at SPA (18 nm S): 133.925 (864-587-2529)

Nearby radio navigation aids

VOR radial/distance  VOR name  Freq  Var
SPAr017/11.1SPARTANBURG VORTAC115.7002W
SUGr123/22.9SUGARLOAF MOUNTAIN VORTAC112.2002W

 
NDB name  Hdg/Dist  Freq  Var  ID
FIRST RIVER266/13.341706WSLP ... .-.. .--.
BROAD RIVER104/29.837907WBRA -... .-. .-
FIDDLERS205/31.339107WFIQ ..-. .. --.-
UNION COUNTY347/33.632606WUOT ..- --- -
STONIA278/34.826006WGHJ --. .... .---

Airport Services

Parking: hangars
Airframe service: NONE
Powerplant service: NONE
Bottled oxygen: NONE
Bulk oxygen: NONE

Runway Information

Runway 16/34

Dimensions: 2000 x 75 ft. / 610 x 23 m
Surface: turf/dirt, in poor condition
RUNWAY 16  RUNWAY 34
Traffic pattern: leftleft
Obstructions: none50 ft. trees, 50 ft. from runway, 100 ft. left and right of centerline

Airport Ownership and Management from official FAA records

Ownership: Privately-owned
Owner: DAVE MCPEAK FAMILY LTD PARTNERSHIP
PO BOX 7
HARRIS, NC 28074-0007
Phone 828-429-4819
Manager: RODNEY BLANTON
1295 HOGAN ROAD
FOREST CITY, NC 28043-7358
Phone 828-305-3404

Airport Operational Statistics

Aircraft based on the field: 1
Single engine airplanes: 1
    
Aircraft operations: 100/year *
50% transient general aviation
50% local general aviation
* for 12-month period ending 10 August 1989

Additional Remarks

RWY 16 UPHILL LANDING.
DEER ON RWY ERY MORNING AND LATE EVE.
FOR CD CTC ATLANTA ARTCC AT 770-210-7692.

Instrument Procedures

There are no published instrument procedures at NC02.

Some nearby airports with instrument procedures:

KEHO - Shelby-Cleveland County Regional Airport (13 nm E)
KFQD - Rutherford County Airport/Marchman Field (13 nm N)
KSPA - Spartanburg Downtown Memorial Airport/Simpson Field (18 nm S)
KGSP - Greenville Spartanburg International Airport (26 nm SW)
KGMU - Greenville Downtown Airport (32 nm SW)
 
Loc | Ops | Rwys | IFR | FBO | Links
Com | Nav | Svcs | Stats | Notes
Area around NC02 (Boomerang Airport)
 
Road maps at: MapQuest Bing Google
 
Aerial photo
No photo
 
Sectional chart

 
Airport distance calculator
Flying to Boomerang Airport? Find the distance to fly.

From to NC02

Sunrise and sunset
Times for 28-Nov-2022
 Local
(UTC-5)
 Zulu
(UTC)
Morning civil twilight06:4811:48
Sunrise07:1612:16
Sunset17:1522:15
Evening civil twilight17:4322:43

Current date and time
Zulu (UTC)  28-Nov-2022 13:01:16
Local (UTC-5)  28-Nov-2022 08:01:16
 
METAR
KSPA 
11nm S 
281255Z AUTO 00000KT 10SM CLR 07/05 A2988 RMK AO2
KFQD 
13nm N 
281235Z AUTO 00000KT 10SM CLR 07/05 A2987 RMK AO2
KEHO 
13nm E 
281255Z AUTO 00000KT 10SM CLR 07/06 A2987 RMK AO2 T00670059
TAF
KGSP 
25nm SW 
281131Z 2812/2912 23004KT P6SM SKC FM281500 28005KT P6SM FEW250 FM282100 25004KT P6SM FEW030 FM290000 02003KT P6SM FEW030 FM290600 03004KT P6SM SKC
NOTAMs
Click for the latest NOTAMs
NOTAMs are issued by the DoD/FAA and will open in a separate window not controlled by AirNav.

 

 
 

Would you like to see your business listed on this page?

 If your business provides an interesting product or service to pilots, flight crews, aircraft, or users of the Boomerang Airport, you should consider listing it here.  To start the listing process, click on the button below
 
Add a business
 

Other Pages about Boomerang Airport

Update a link
 
Copyright © AirNav, LLC. All rights reserved. Privacy Policy  Contact